createdAt,value
2023-08-23T00:03:38.224Z,3.67
2023-08-23T00:06:07.234Z,3.45
2023-08-23T00:08:34.867Z,3.13
2023-08-23T00:11:05.728Z,3.20
2023-08-23T00:13:33.438Z,3.35
2023-08-23T00:16:01.018Z,4.05
2023-08-23T00:18:28.666Z,3.22
2023-08-23T00:20:58.665Z,3.22
2023-08-23T00:23:27.687Z,2.85
2023-08-23T00:25:55.351Z,3.22
2023-08-23T00:28:23.100Z,3.35
2023-08-23T00:30:51.713Z,3.30
2023-08-23T00:33:19.637Z,3.13
2023-08-23T00:35:47.501Z,3.40
2023-08-23T00:38:15.592Z,3.42
2023-08-23T00:40:45.192Z,4.00
2023-08-23T00:43:12.863Z,3.00
2023-08-23T00:45:41.957Z,3.08
2023-08-23T00:48:13.489Z,3.03
2023-08-23T00:50:44.861Z,3.33
2023-08-23T00:53:14.384Z,3.35
2023-08-23T00:55:42.192Z,3.30
2023-08-23T00:58:11.666Z,3.72
2023-08-23T01:00:42.265Z,3.30
2023-08-23T01:03:10.312Z,3.30
2023-08-23T01:05:49.857Z,3.63
2023-08-23T01:08:25.532Z,3.40
2023-08-23T01:10:57.417Z,3.58
2023-08-23T01:13:31.504Z,3.38
2023-08-23T01:16:00.922Z,3.38
2023-08-23T01:18:29.592Z,3.40
2023-08-23T01:20:59.287Z,3.20
2023-08-23T01:23:31.023Z,3.05
2023-08-23T01:25:58.666Z,3.63
2023-08-23T01:28:26.261Z,3.63
2023-08-23T01:30:54.632Z,3.47
2023-08-23T01:33:31.271Z,3.13
2023-08-23T01:36:03.974Z,2.83
2023-08-23T01:38:36.036Z,3.22
2023-08-23T01:41:04.949Z,3.00
2023-08-23T01:43:32.646Z,3.33
2023-08-23T01:46:00.335Z,3.25
2023-08-23T01:48:29.898Z,3.25
2023-08-23T01:50:57.534Z,3.55
2023-08-23T01:53:25.200Z,3.05
2023-08-23T01:55:54.229Z,3.45
2023-08-23T01:58:21.884Z,3.10
2023-08-23T02:00:49.520Z,3.40
2023-08-23T02:03:17.462Z,2.70
2023-08-23T02:05:45.255Z,3.00
2023-08-23T02:08:13.226Z,3.08
2023-08-23T02:14:48.098Z,2.90
2023-08-23T02:17:15.729Z,3.53
2023-08-23T02:19:43.522Z,3.25
2023-08-23T02:22:11.189Z,3.03
2023-08-23T02:24:38.832Z,3.10
2023-08-23T02:27:06.608Z,2.80
2023-08-23T02:29:34.240Z,2.97
2023-08-23T02:32:03.427Z,3.50
2023-08-23T02:34:31.178Z,2.90
2023-08-23T02:36:57.826Z,3.03
2023-08-23T02:39:25.442Z,3.10
2023-08-23T02:41:53.112Z,3.17
2023-08-23T02:44:22.017Z,3.15
2023-08-23T02:46:49.768Z,3.42
2023-08-23T02:49:18.782Z,3.50
2023-08-23T02:51:46.400Z,3.17
2023-08-23T02:54:14.022Z,3.33
2023-08-23T02:56:41.681Z,3.50
2023-08-23T02:59:09.296Z,3.38
2023-08-23T03:01:37.120Z,3.28
2023-08-23T03:04:05.170Z,3.00
2023-08-23T03:06:34.175Z,3.15
2023-08-23T03:09:01.820Z,2.83
2023-08-23T03:11:29.477Z,3.42
2023-08-23T03:13:58.402Z,3.22
2023-08-23T03:16:26.117Z,3.65
2023-08-23T03:18:54.484Z,3.20
2023-08-23T03:21:22.080Z,3.30
2023-08-23T03:23:51.847Z,3.10
2023-08-23T03:26:19.542Z,3.05
2023-08-23T03:28:48.730Z,3.50
2023-08-23T03:31:18.249Z,3.70
2023-08-23T03:33:47.060Z,3.60
2023-08-23T03:36:14.756Z,3.33
2023-08-23T03:38:42.450Z,3.38
2023-08-23T03:41:15.535Z,3.70
2023-08-23T03:43:43.460Z,3.58
2023-08-23T03:46:11.237Z,3.47
2023-08-23T03:48:38.939Z,3.38
2023-08-23T03:51:06.569Z,3.28
2023-08-23T03:53:34.223Z,3.38
2023-08-23T03:56:03.641Z,3.30
2023-08-23T03:58:32.684Z,3.33
2023-08-23T04:01:00.360Z,3.75
2023-08-23T04:03:28.201Z,3.30
2023-08-23T04:05:55.992Z,4.05
2023-08-23T04:08:23.586Z,3.97
2023-08-23T04:10:52.114Z,4.10
2023-08-23T04:13:19.842Z,4.18
2023-08-23T04:15:50.284Z,4.68
2023-08-23T04:18:18.018Z,4.22
2023-08-23T04:20:45.716Z,4.15
2023-08-23T04:23:13.400Z,4.10
2023-08-23T04:25:41.041Z,4.68
2023-08-23T04:28:08.655Z,4.40
2023-08-23T04:30:36.304Z,4.75
2023-08-23T04:33:05.748Z,4.38
2023-08-23T04:35:33.493Z,4.68
2023-08-23T04:38:01.130Z,4.40
2023-08-23T04:40:30.175Z,4.60
2023-08-23T04:42:57.897Z,4.22
2023-08-23T04:45:28.394Z,4.00
2023-08-23T04:47:57.507Z,4.07
2023-08-23T04:50:26.552Z,4.47
2023-08-23T04:52:54.246Z,4.53
2023-08-23T04:55:21.918Z,4.70
2023-08-23T04:57:49.869Z,4.43
2023-08-23T05:00:18.020Z,4.75
2023-08-23T05:02:45.696Z,4.72
2023-08-23T05:05:13.479Z,4.50
2023-08-23T05:07:42.576Z,4.38
2023-08-23T05:10:10.901Z,4.22
2023-08-23T05:12:39.522Z,4.65
2023-08-23T05:15:08.550Z,4.50
2023-08-23T05:17:38.914Z,4.40
2023-08-23T05:20:09.428Z,4.18
2023-08-23T05:22:37.180Z,4.40
2023-08-23T05:25:06.665Z,4.28
2023-08-23T05:27:34.436Z,4.60
2023-08-23T05:30:05.016Z,5.65
2023-08-23T05:32:33.063Z,4.80
2023-08-23T05:35:00.883Z,5.50
2023-08-23T05:37:28.527Z,4.90
2023-08-23T05:39:56.245Z,5.18
2023-08-23T05:42:25.723Z,5.80
2023-08-23T05:44:53.456Z,5.47
2023-08-23T05:47:21.235Z,5.35
2023-08-23T05:49:49.297Z,5.43
2023-08-23T05:52:16.950Z,6.75
2023-08-23T05:54:44.633Z,7.18
2023-08-23T05:57:12.308Z,6.75
2023-08-23T05:59:41.461Z,6.63
2023-08-23T06:02:11.323Z,6.78
2023-08-23T06:04:40.694Z,6.80
2023-08-23T06:07:08.555Z,6.10
2023-08-23T06:09:36.234Z,7.07
2023-08-23T06:12:04.147Z,6.90
2023-08-23T06:14:31.853Z,6.90
2023-08-23T06:17:00.960Z,7.55
2023-08-23T06:19:28.813Z,7.00
2023-08-23T06:21:56.480Z,7.63
2023-08-23T06:24:24.134Z,7.43
2023-08-23T06:26:51.786Z,7.45
2023-08-23T06:29:19.574Z,6.93
2023-08-23T06:31:47.390Z,8.00
2023-08-23T06:34:16.346Z,7.75
2023-08-23T06:36:44.033Z,7.05
2023-08-23T06:39:23.866Z,8.05
2023-08-23T06:41:59.822Z,8.07
2023-08-23T06:44:27.479Z,8.00
2023-08-23T06:46:55.147Z,8.15
2023-08-23T06:49:42.635Z,9.82
2023-08-23T06:52:10.745Z,8.75
2023-08-23T06:54:38.382Z,8.98
2023-08-23T06:57:06.546Z,8.70
2023-08-23T06:59:34.222Z,8.07
2023-08-23T07:02:02.083Z,8.82
2023-08-23T07:04:31.253Z,9.07
2023-08-23T07:06:59.318Z,9.10
2023-08-23T07:09:26.921Z,8.32
2023-08-23T07:11:54.562Z,8.25
2023-08-23T07:14:22.217Z,8.07
2023-08-23T07:16:49.906Z,8.05
2023-08-23T07:19:17.575Z,8.85
2023-08-23T07:21:46.534Z,8.23
2023-08-23T07:24:16.128Z,8.82
2023-08-23T07:26:43.776Z,8.85
2023-08-23T07:29:13.110Z,9.15
2023-08-23T07:31:40.999Z,8.10
2023-08-23T07:34:08.621Z,7.40
2023-08-23T07:36:36.682Z,8.43
2023-08-23T07:39:05.761Z,8.07
2023-08-23T07:41:33.402Z,8.73
2023-08-23T07:44:01.114Z,8.00
2023-08-23T07:46:29.106Z,8.23
2023-08-23T07:48:56.838Z,8.68
2023-08-23T07:51:24.552Z,9.38
2023-08-23T07:53:52.227Z,8.52
2023-08-23T07:56:21.221Z,8.60
2023-08-23T07:58:48.977Z,8.32
2023-08-23T08:01:16.663Z,8.98
2023-08-23T08:03:44.386Z,9.23
2023-08-23T08:06:12.590Z,9.35
2023-08-23T08:08:43.783Z,9.32
2023-08-23T08:11:12.311Z,8.45
2023-08-23T08:13:41.395Z,9.50
2023-08-23T08:16:10.316Z,8.95
2023-08-23T08:18:38.089Z,10.32
2023-08-23T08:21:05.885Z,8.43
2023-08-23T08:23:33.682Z,9.63
2023-08-23T08:26:01.307Z,9.57
2023-08-23T08:28:29.005Z,8.00
2023-08-23T08:30:57.998Z,8.23
2023-08-23T08:33:25.812Z,8.27
2023-08-23T08:35:53.417Z,8.40
2023-08-23T08:38:23.239Z,7.60
2023-08-23T08:40:50.945Z,8.63
2023-08-23T08:43:19.179Z,7.85
2023-08-23T08:45:47.024Z,7.35
2023-08-23T08:48:17.062Z,6.22
2023-08-23T08:50:44.875Z,6.50
2023-08-23T08:53:16.857Z,6.10
2023-08-23T08:55:46.972Z,6.10
2023-08-23T08:58:20.824Z,6.47
2023-08-23T09:00:50.763Z,6.13
2023-08-23T09:03:20.251Z,6.18
2023-08-23T09:05:49.399Z,6.03
2023-08-23T09:08:17.418Z,5.13
2023-08-23T09:10:45.128Z,5.00
2023-08-23T09:13:12.901Z,4.75
2023-08-23T09:15:40.717Z,4.80
2023-08-23T09:18:08.681Z,3.53
2023-08-23T09:20:38.582Z,3.50
2023-08-23T09:23:06.573Z,3.45
2023-08-23T09:25:34.185Z,3.70
2023-08-23T09:28:01.853Z,3.53
2023-08-23T09:30:29.530Z,4.03
2023-08-23T09:32:59.309Z,4.03
2023-08-23T09:35:27.049Z,4.10
2023-08-23T09:37:56.095Z,4.68
2023-08-23T09:40:26.073Z,4.55
2023-08-23T09:42:57.256Z,4.47
2023-08-23T09:45:27.474Z,4.32
2023-08-23T09:47:58.218Z,3.97
2023-08-23T09:50:27.429Z,4.30
2023-08-23T09:53:01.559Z,5.22
2023-08-23T09:55:31.193Z,4.20
2023-08-23T09:57:59.290Z,4.28
2023-08-23T10:00:28.132Z,4.82
2023-08-23T10:02:57.643Z,4.68
2023-08-23T10:05:28.661Z,4.55
2023-08-23T10:07:59.016Z,3.70
2023-08-23T10:10:28.246Z,4.68
2023-08-23T10:13:00.097Z,5.03
2023-08-23T10:15:31.930Z,4.93
2023-08-23T10:18:01.598Z,4.82
2023-08-23T10:20:29.445Z,4.38
2023-08-23T10:22:58.652Z,5.88
2023-08-23T10:25:26.398Z,4.78
2023-08-23T10:27:55.979Z,5.07
2023-08-23T10:30:25.471Z,5.35
2023-08-23T10:32:53.852Z,5.55
2023-08-23T10:35:24.676Z,5.57
2023-08-23T10:37:54.862Z,5.78
2023-08-23T10:40:24.112Z,5.40
2023-08-23T10:42:52.222Z,5.68
2023-08-23T10:45:20.028Z,6.25
2023-08-23T10:47:51.871Z,5.00
2023-08-23T10:50:20.760Z,6.57
2023-08-23T10:52:49.281Z,6.28
2023-08-23T10:55:16.895Z,5.78
2023-08-23T10:57:46.909Z,5.85
2023-08-23T11:00:15.798Z,6.90
2023-08-23T11:02:43.855Z,5.07
2023-08-23T11:05:12.507Z,5.50
2023-08-23T11:07:40.224Z,6.10
2023-08-23T11:10:10.720Z,4.20
2023-08-23T11:12:39.504Z,4.78
2023-08-23T11:15:09.869Z,4.40
2023-08-23T11:17:38.778Z,4.22
2023-08-23T11:20:09.437Z,3.83
2023-08-23T11:22:37.173Z,3.65
2023-08-23T11:25:05.388Z,3.22
2023-08-23T11:27:32.983Z,3.03
2023-08-23T11:30:00.891Z,3.65
2023-08-23T11:32:31.774Z,3.38
2023-08-23T11:35:05.450Z,2.97
2023-08-23T11:37:33.698Z,3.58
2023-08-23T11:40:08.892Z,2.92
2023-08-23T11:42:37.635Z,3.05
2023-08-23T11:45:05.995Z,2.90
2023-08-23T11:47:35.586Z,2.80
2023-08-23T11:50:03.558Z,2.35
2023-08-23T11:52:31.928Z,2.50
2023-08-23T11:55:00.481Z,2.60
2023-08-23T11:57:40.065Z,2.88
2023-08-23T12:00:09.297Z,2.40
2023-08-23T12:02:41.480Z,2.30
2023-08-23T12:05:10.948Z,2.40
2023-08-23T12:07:39.239Z,2.10
2023-08-23T12:10:09.777Z,1.80
2023-08-23T12:12:37.873Z,2.50
2023-08-23T12:15:09.557Z,2.13
2023-08-23T12:17:37.277Z,1.90
2023-08-23T12:20:08.822Z,2.30
2023-08-23T12:22:36.527Z,1.63
2023-08-23T12:25:05.194Z,1.70
2023-08-23T12:27:32.855Z,1.98
2023-08-23T12:30:00.661Z,1.80
2023-08-23T12:32:28.407Z,1.65
2023-08-23T12:34:56.035Z,1.65
2023-08-23T12:37:25.117Z,1.90
2023-08-23T12:39:52.861Z,1.90
2023-08-23T12:42:20.549Z,1.90
2023-08-23T12:44:48.219Z,2.10
2023-08-23T12:47:15.980Z,2.08
2023-08-23T12:49:43.660Z,2.00
2023-08-23T12:52:13.073Z,1.95
2023-08-23T12:54:42.042Z,1.77
2023-08-23T12:57:09.659Z,2.13
2023-08-23T12:59:37.274Z,2.10
2023-08-23T13:02:05.113Z,1.63
2023-08-23T13:04:33.006Z,1.67
2023-08-23T13:07:00.592Z,1.60
2023-08-23T13:09:28.244Z,1.83
2023-08-23T13:11:57.250Z,1.80
2023-08-23T13:14:25.210Z,1.58
2023-08-23T13:16:52.830Z,2.05
2023-08-23T13:19:23.202Z,1.88
2023-08-23T13:21:50.814Z,1.65
2023-08-23T13:24:22.250Z,2.03
2023-08-23T13:26:50.750Z,2.00
2023-08-23T13:29:19.746Z,2.05
2023-08-23T13:31:47.434Z,1.60
2023-08-23T13:34:15.419Z,2.00
2023-08-23T13:36:44.516Z,2.25
2023-08-23T13:39:13.095Z,2.25
2023-08-23T13:41:40.921Z,2.28
2023-08-23T13:44:08.701Z,2.20
2023-08-23T13:46:38.211Z,2.47
2023-08-23T13:49:05.925Z,2.22
2023-08-23T13:51:33.549Z,2.15
2023-08-23T13:54:01.276Z,2.22
2023-08-23T13:56:28.900Z,2.00
2023-08-23T13:58:57.991Z,2.42
2023-08-23T14:01:25.666Z,2.53
2023-08-23T14:03:54.809Z,2.13
2023-08-23T14:06:22.480Z,2.13
2023-08-23T14:08:50.740Z,2.67
2023-08-23T14:11:18.452Z,2.30
2023-08-23T14:13:46.021Z,2.58
2023-08-23T14:16:13.745Z,2.70
2023-08-23T14:18:41.839Z,2.63
2023-08-23T14:21:10.927Z,2.40
2023-08-23T14:23:38.661Z,2.70
2023-08-23T14:26:08.489Z,2.30
2023-08-23T14:28:37.154Z,2.55
2023-08-23T14:31:07.461Z,2.90
2023-08-23T14:33:35.271Z,2.80
2023-08-23T14:36:02.922Z,2.65
2023-08-23T14:38:32.015Z,2.25
2023-08-23T14:40:59.795Z,2.30
2023-08-23T14:43:27.466Z,2.88
2023-08-23T14:45:55.127Z,2.03
2023-08-23T14:48:22.788Z,2.38
2023-08-23T14:50:52.649Z,2.22
2023-08-23T14:53:20.330Z,1.90
2023-08-23T14:55:53.032Z,1.75
2023-08-23T14:58:22.910Z,1.92
2023-08-23T15:00:50.547Z,1.70
2023-08-23T15:03:18.212Z,1.90
2023-08-23T15:05:45.892Z,1.70
2023-08-23T15:08:13.574Z,1.92
2023-08-23T15:10:41.187Z,2.00
2023-08-23T15:13:10.243Z,1.65
2023-08-23T15:15:39.258Z,2.15
2023-08-23T15:18:07.672Z,1.70
2023-08-23T15:20:35.580Z,1.70
2023-08-23T15:23:04.423Z,1.90
2023-08-23T15:25:34.193Z,1.83
2023-08-23T15:28:02.015Z,1.42
2023-08-23T15:30:31.333Z,1.95
2023-08-23T15:32:59.865Z,2.03
2023-08-23T15:35:28.091Z,2.30
2023-08-23T15:37:55.706Z,2.00
2023-08-23T15:40:23.565Z,2.10
2023-08-23T15:42:51.229Z,1.65
2023-08-23T15:45:19.799Z,2.15
2023-08-23T15:47:51.750Z,2.40
2023-08-23T15:50:21.996Z,1.85
2023-08-23T15:52:49.646Z,1.83
2023-08-23T15:55:17.290Z,1.80
2023-08-23T15:57:44.905Z,2.08
2023-08-23T16:00:13.746Z,2.10
2023-08-23T16:02:41.490Z,2.20
2023-08-23T16:05:12.053Z,2.53
2023-08-23T16:07:39.853Z,2.63
2023-08-23T16:10:11.055Z,2.25
2023-08-23T16:12:38.903Z,2.50
2023-08-23T16:15:07.772Z,2.40
2023-08-23T16:17:37.257Z,2.05
2023-08-23T16:20:08.916Z,2.10
2023-08-23T16:22:38.028Z,2.67
2023-08-23T16:25:06.114Z,2.40
2023-08-23T16:27:33.865Z,2.40
2023-08-23T16:30:02.372Z,2.78
2023-08-23T16:32:30.174Z,2.83
2023-08-23T16:34:57.821Z,2.70
2023-08-23T16:37:25.431Z,2.53
2023-08-23T16:39:54.422Z,2.30
2023-08-23T16:42:22.020Z,2.50
2023-08-23T16:44:49.673Z,2.40
2023-08-23T16:47:17.396Z,2.50
2023-08-23T16:49:45.119Z,3.05
2023-08-23T16:52:12.755Z,2.53
2023-08-23T16:54:40.396Z,2.72
2023-08-23T16:57:09.364Z,2.42
2023-08-23T16:59:36.992Z,2.45
2023-08-23T17:02:04.620Z,2.42
2023-08-23T17:04:32.230Z,2.60
2023-08-23T17:06:59.929Z,2.05
2023-08-23T17:09:27.616Z,2.28
2023-08-23T17:11:55.228Z,2.00
2023-08-23T17:14:24.310Z,1.80
2023-08-23T17:16:52.071Z,2.00
2023-08-23T17:19:20.145Z,1.85
2023-08-23T17:21:48.081Z,2.10
2023-08-23T17:24:15.732Z,2.08
2023-08-23T17:26:48.505Z,1.98
2023-08-23T17:29:16.112Z,2.05
2023-08-23T17:31:45.074Z,1.70
2023-08-23T17:34:12.682Z,2.15
2023-08-23T17:36:40.331Z,2.00
2023-08-23T17:39:07.969Z,1.70
2023-08-23T17:41:36.739Z,1.75
2023-08-23T17:44:04.466Z,1.80
2023-08-23T17:46:39.304Z,2.05
2023-08-23T17:49:08.885Z,1.70
2023-08-23T17:51:37.804Z,1.90
2023-08-23T17:54:08.016Z,2.40
2023-08-23T17:56:35.998Z,2.55
2023-08-23T17:59:03.900Z,2.80
2023-08-23T18:01:32.032Z,3.25
2023-08-23T18:03:59.664Z,2.83
2023-08-23T18:06:29.561Z,2.30
2023-08-23T18:08:57.190Z,2.75
2023-08-23T18:11:25.661Z,2.72
2023-08-23T18:13:53.317Z,2.50
2023-08-23T18:16:21.217Z,2.10
2023-08-23T18:18:48.872Z,2.75
2023-08-23T18:21:17.278Z,2.53
2023-08-23T18:23:46.240Z,2.60
2023-08-23T18:26:14.002Z,2.95
2023-08-23T18:28:41.625Z,2.55
2023-08-23T18:31:09.397Z,2.38
2023-08-23T18:33:37.067Z,2.60
2023-08-23T18:36:05.213Z,2.72
2023-08-23T18:38:32.853Z,3.10
2023-08-23T18:41:04.992Z,2.80
2023-08-23T18:43:33.648Z,2.58
2023-08-23T18:46:01.289Z,2.58
2023-08-23T18:48:29.198Z,3.10
2023-08-23T18:51:00.505Z,3.47
2023-08-23T18:53:35.039Z,2.65
2023-08-23T18:56:03.367Z,2.53
2023-08-23T18:58:32.533Z,2.88
2023-08-23T19:01:00.303Z,2.42
2023-08-23T19:03:29.141Z,2.65
2023-08-23T19:05:57.382Z,2.38
2023-08-23T19:08:24.995Z,2.80
2023-08-23T19:10:52.648Z,3.75
2023-08-23T19:13:20.378Z,3.20
2023-08-23T19:15:49.373Z,2.92
2023-08-23T19:18:17.116Z,2.70
2023-08-23T19:20:44.883Z,2.70
2023-08-23T19:23:12.510Z,3.13
2023-08-23T19:25:42.000Z,2.88
2023-08-23T19:28:09.598Z,3.00
2023-08-23T19:30:37.258Z,2.63
2023-08-23T19:33:06.381Z,3.00
2023-08-23T19:35:44.024Z,2.80
2023-08-23T19:38:12.143Z,3.20
2023-08-23T19:40:39.880Z,2.80
2023-08-23T19:43:07.536Z,3.13
2023-08-23T19:45:35.623Z,2.95
2023-08-23T19:48:17.101Z,3.10
2023-08-23T19:50:52.647Z,2.72
2023-08-23T19:53:20.312Z,3.25
2023-08-23T19:55:47.939Z,2.67
2023-08-23T19:58:16.663Z,3.22
2023-08-23T20:00:46.503Z,3.50
2023-08-23T20:03:14.213Z,3.25
2023-08-23T20:05:44.776Z,4.15
2023-08-23T20:08:13.747Z,3.97
2023-08-23T20:13:26.889Z,3.95
2023-08-23T20:15:54.667Z,3.38
2023-08-23T20:18:22.286Z,3.17
2023-08-23T20:20:50.001Z,3.65
2023-08-23T20:23:19.707Z,3.95
2023-08-23T20:25:47.342Z,4.00
2023-08-23T20:28:14.930Z,4.10
2023-08-23T20:30:43.430Z,3.63
2023-08-23T20:33:11.067Z,3.67
2023-08-23T20:35:38.721Z,4.30
2023-08-23T20:38:06.820Z,4.63
2023-08-23T20:40:35.824Z,4.57
2023-08-23T20:43:05.480Z,3.92
2023-08-23T20:45:33.182Z,4.43
2023-08-23T20:48:00.839Z,4.22
2023-08-23T20:50:28.842Z,3.78
2023-08-23T20:52:56.651Z,4.47
2023-08-23T20:55:24.283Z,4.10
2023-08-23T20:57:53.288Z,4.00
2023-08-23T21:00:20.966Z,4.28
2023-08-23T21:02:48.584Z,4.30
2023-08-23T21:05:16.359Z,4.40
2023-08-23T21:07:43.942Z,4.43
2023-08-23T21:10:11.909Z,4.75
2023-08-23T21:12:39.618Z,4.32
2023-08-23T21:15:09.563Z,4.47
2023-08-23T21:17:37.168Z,4.32
2023-08-23T21:20:07.159Z,4.32
2023-08-23T21:22:40.623Z,4.25
2023-08-23T21:25:09.125Z,4.22
2023-08-23T21:27:36.773Z,4.15
2023-08-23T21:30:08.479Z,3.92
2023-08-23T21:32:37.582Z,4.32
2023-08-23T21:35:08.148Z,3.75
2023-08-23T21:37:37.552Z,4.55
2023-08-23T21:40:05.853Z,4.10
2023-08-23T21:42:33.703Z,4.60
2023-08-23T21:45:01.400Z,4.57
2023-08-23T21:47:29.338Z,4.78
2023-08-23T21:49:58.654Z,4.40
2023-08-23T21:52:27.043Z,4.30
2023-08-23T21:54:54.843Z,4.43
2023-08-23T21:57:22.488Z,4.45
2023-08-23T21:59:50.128Z,4.47
2023-08-23T22:02:20.369Z,5.00
2023-08-23T22:04:48.032Z,4.50
2023-08-23T22:07:17.979Z,4.45
2023-08-23T22:09:45.706Z,4.15
2023-08-23T22:12:13.371Z,3.75
2023-08-23T22:14:41.018Z,3.80
2023-08-23T22:17:10.224Z,5.35
2023-08-23T22:19:37.860Z,4.05
2023-08-23T22:22:05.491Z,4.22
2023-08-23T22:24:34.501Z,4.43
2023-08-23T22:27:04.682Z,4.43
2023-08-23T22:29:33.322Z,4.50
2023-08-23T22:32:01.027Z,3.78
2023-08-23T22:34:28.721Z,4.68
2023-08-23T22:36:56.639Z,4.60
2023-08-23T22:39:24.305Z,4.13
2023-08-23T22:41:53.308Z,4.18
2023-08-23T22:44:20.951Z,4.25
2023-08-23T22:46:48.636Z,4.32
2023-08-23T22:49:19.071Z,4.22
2023-08-23T22:51:46.753Z,3.80
2023-08-23T22:54:14.428Z,4.50
2023-08-23T22:56:42.052Z,4.40
2023-08-23T22:59:11.023Z,4.50
2023-08-23T23:01:38.706Z,3.95
2023-08-23T23:04:06.419Z,5.00
2023-08-23T23:06:34.040Z,4.40
2023-08-23T23:09:01.674Z,4.70
2023-08-23T23:11:29.477Z,4.22
2023-08-23T23:13:57.085Z,4.63
2023-08-23T23:16:26.282Z,4.75
2023-08-23T23:18:53.953Z,4.95
2023-08-23T23:21:21.598Z,4.32
2023-08-23T23:23:49.243Z,4.63
2023-08-23T23:26:17.251Z,3.97
2023-08-23T23:28:45.190Z,4.43
2023-08-23T23:31:14.767Z,4.40
2023-08-23T23:33:45.290Z,3.85
2023-08-23T23:36:13.109Z,4.55
2023-08-23T23:38:44.175Z,4.97
2023-08-23T23:41:12.196Z,4.22
2023-08-23T23:43:39.989Z,4.88
2023-08-23T23:46:07.676Z,4.57
2023-08-23T23:48:35.393Z,4.47
2023-08-23T23:51:04.505Z,4.78
2023-08-23T23:53:32.124Z,4.43
2023-08-23T23:55:59.704Z,4.40
2023-08-23T23:58:27.311Z,4.25
